createdAt,value
2023-10-20T01:09:09.191Z,41.22
2023-10-20T01:22:44.181Z,41.93
2023-10-20T01:36:13.173Z,43.55
2023-10-20T01:45:40.800Z,45.12
2023-10-20T01:48:09.780Z,44.79
2023-10-20T01:51:17.289Z,45.10
2023-10-20T01:54:14.706Z,46.57
2023-10-20T01:56:39.119Z,47.35
2023-10-20T02:02:12.954Z,47.82
2023-10-20T02:10:12.342Z,50.82
2023-10-20T02:12:42.601Z,50.26
2023-10-20T02:15:11.654Z,50.04
2023-10-20T02:20:48.841Z,49.64
2023-10-20T02:23:16.857Z,49.43
2023-10-20T02:29:42.529Z,52.36
2023-10-20T02:32:10.990Z,50.82
2023-10-20T02:34:42.220Z,52.20
2023-10-20T02:38:18.893Z,53.23
2023-10-20T02:40:42.200Z,52.24
2023-10-20T02:43:14.530Z,53.46
2023-10-20T02:46:14.585Z,55.27
2023-10-20T02:48:42.998Z,53.21
2023-10-20T02:51:13.447Z,53.49
2023-10-20T02:53:42.594Z,52.73
2023-10-20T02:56:18.804Z,53.91
2023-10-20T02:59:11.951Z,54.71
2023-10-20T03:01:43.348Z,54.69
2023-10-20T03:06:38.889Z,53.64
2023-10-20T03:09:15.598Z,54.94
2023-10-20T03:17:32.580Z,54.77
2023-10-20T03:20:19.605Z,54.90
2023-10-20T03:26:19.737Z,54.12
2023-10-20T03:29:12.042Z,54.29
2023-10-20T03:31:44.176Z,54.27
2023-10-20T03:34:23.739Z,54.28
2023-10-20T03:37:15.486Z,55.30
2023-10-20T03:40:23.277Z,55.44
2023-10-20T03:42:45.343Z,56.51
2023-10-20T03:45:18.946Z,56.08
2023-10-20T03:47:51.965Z,55.71
2023-10-20T03:50:20.480Z,55.08
2023-10-20T03:53:17.678Z,55.12
2023-10-20T03:59:23.521Z,55.35
2023-10-20T04:02:14.402Z,55.95
2023-10-20T04:04:44.863Z,56.20
2023-10-20T04:07:17.387Z,56.53
2023-10-20T04:09:46.040Z,56.26
2023-10-20T04:12:15.010Z,56.04
2023-10-20T04:14:45.510Z,55.88
2023-10-20T04:17:13.946Z,56.02
2023-10-20T04:19:45.618Z,56.01
2023-10-20T04:22:15.302Z,56.38
2023-10-20T04:24:46.683Z,56.84
2023-10-20T04:27:28.333Z,56.96
2023-10-20T04:30:15.024Z,56.23
2023-10-20T04:33:14.380Z,56.33
2023-10-20T04:36:14.529Z,55.68
2023-10-20T04:39:13.409Z,55.13
2023-10-20T04:42:02.980Z,54.38
2023-10-20T04:44:56.508Z,54.91
2023-10-20T04:47:32.017Z,55.22
2023-10-20T04:51:23.052Z,56.17
2023-10-20T04:54:25.911Z,56.32
2023-10-20T04:57:26.042Z,56.79
2023-10-20T05:00:26.301Z,56.11
2023-10-20T05:03:43.767Z,56.34
2023-10-20T05:06:24.866Z,55.59
2023-10-20T05:09:16.201Z,56.18
2023-10-20T05:12:18.017Z,55.95
2023-10-20T05:14:51.937Z,55.65
2023-10-20T05:17:21.540Z,55.43
2023-10-20T05:20:04.634Z,55.43
2023-10-20T05:22:44.033Z,56.05
2023-10-20T05:27:45.872Z,56.59
2023-10-20T05:30:15.606Z,56.96
2023-10-20T05:32:49.114Z,57.11
2023-10-20T05:35:17.728Z,57.39
2023-10-20T05:37:46.169Z,57.89
2023-10-20T05:40:17.997Z,57.31
2023-10-20T05:42:46.329Z,57.83
2023-10-20T05:45:23.157Z,57.85
2023-10-20T05:47:52.307Z,59.35
2023-10-20T05:50:20.737Z,58.97
2023-10-20T05:52:49.662Z,59.08
2023-10-20T05:55:18.110Z,59.53
2023-10-20T05:57:47.317Z,60.52
2023-10-20T06:00:19.141Z,60.66
2023-10-20T06:02:48.746Z,61.01
2023-10-20T06:05:18.576Z,61.00
2023-10-20T06:07:50.118Z,61.36
2023-10-20T06:10:24.310Z,61.50
2023-10-20T06:15:50.272Z,61.96
2023-10-20T06:18:46.647Z,61.87
2023-10-20T06:24:46.113Z,62.94
2023-10-20T06:27:47.447Z,63.25
2023-10-20T06:30:46.702Z,63.78
2023-10-20T06:40:49.238Z,64.59
2023-10-20T06:43:46.923Z,64.73
2023-10-20T06:46:18.338Z,65.27
2023-10-20T06:48:49.998Z,65.65
2023-10-20T06:51:20.088Z,65.67
2023-10-20T06:53:48.604Z,66.00
2023-10-20T06:56:19.529Z,65.83
2023-10-20T06:58:51.810Z,66.14
2023-10-20T07:01:20.600Z,66.55
2023-10-20T07:03:49.264Z,65.93
2023-10-20T07:06:17.996Z,66.18
2023-10-20T07:08:47.714Z,66.62
2023-10-20T07:11:19.409Z,66.89
2023-10-20T07:13:47.788Z,67.21
2023-10-20T07:16:16.239Z,66.92
2023-10-20T07:18:49.958Z,67.36
2023-10-20T07:21:18.335Z,67.08
2023-10-20T07:23:47.511Z,67.32
2023-10-20T07:26:19.964Z,67.21
2023-10-20T07:28:49.058Z,67.34
2023-10-20T07:31:20.509Z,67.44
2023-10-20T07:33:52.275Z,67.37
2023-10-20T07:36:25.075Z,67.81
2023-10-20T07:38:53.745Z,68.20
2023-10-20T07:41:22.301Z,68.90
2023-10-20T07:43:50.917Z,69.10
2023-10-20T07:46:20.133Z,69.40
2023-10-20T07:48:56.601Z,69.80
2023-10-20T07:51:28.524Z,69.81
2023-10-20T07:53:56.955Z,69.63
2023-10-20T07:56:27.102Z,69.87
2023-10-20T07:58:55.532Z,69.67
2023-10-20T08:01:29.748Z,70.13
2023-10-20T08:03:58.592Z,70.31
2023-10-20T08:06:47.795Z,69.96
2023-10-20T08:09:19.535Z,70.28
2023-10-20T08:11:50.619Z,70.51
2023-10-20T08:14:18.601Z,70.90
2023-10-20T08:16:51.357Z,70.60
2023-10-20T08:19:19.738Z,71.05
2023-10-20T08:22:19.392Z,71.51
2023-10-20T08:27:20.608Z,71.99
2023-10-20T08:30:17.235Z,72.18
2023-10-20T08:32:46.212Z,71.92
2023-10-20T08:35:17.425Z,72.74
2023-10-20T08:38:20.350Z,72.83
2023-10-20T08:43:40.652Z,72.53
2023-10-20T08:46:20.469Z,72.65
2023-10-20T08:49:20.489Z,72.38
2023-10-20T08:52:21.021Z,72.40
2023-10-20T08:54:52.558Z,73.29
2023-10-20T08:58:16.309Z,73.31
2023-10-20T09:01:27.223Z,73.60
2023-10-20T09:06:47.233Z,74.22
2023-10-20T09:09:21.575Z,74.33
2023-10-20T09:12:45.871Z,74.35
2023-10-20T09:14:58.883Z,74.20
2023-10-20T09:17:27.867Z,74.30
2023-10-20T09:20:28.723Z,73.78
2023-10-20T09:23:05.812Z,73.84
2023-10-20T09:28:30.274Z,73.73
2023-10-20T09:31:18.905Z,73.33
2023-10-20T09:33:48.266Z,73.48
2023-10-20T09:36:21.248Z,73.69
2023-10-20T09:39:23.809Z,73.88
2023-10-20T09:45:18.305Z,73.46
2023-10-20T09:47:56.316Z,73.92
2023-10-20T09:50:26.134Z,73.77
2023-10-20T09:53:00.018Z,73.80
2023-10-20T09:55:31.467Z,73.88
2023-10-20T10:00:49.536Z,73.94
2023-10-20T10:03:44.532Z,73.49
2023-10-20T10:06:20.301Z,73.77
2023-10-20T10:08:48.837Z,73.74
2023-10-20T10:11:52.377Z,73.47
2023-10-20T10:14:23.351Z,73.56
2023-10-20T10:16:59.962Z,73.66
2023-10-20T10:22:07.649Z,74.23
2023-10-20T10:24:39.413Z,73.82
2023-10-20T10:27:10.082Z,73.84
2023-10-20T10:32:49.787Z,73.34
2023-10-20T10:35:24.439Z,73.59
2023-10-20T10:37:55.355Z,73.19
2023-10-20T10:43:48.845Z,73.03
2023-10-20T10:46:17.238Z,73.53
2023-10-20T10:48:49.421Z,73.13
2023-10-20T10:54:16.873Z,72.25
2023-10-20T10:56:48.394Z,72.78
2023-10-20T11:04:47.804Z,72.69
2023-10-20T11:07:19.467Z,72.57
2023-10-20T11:12:18.934Z,72.55
2023-10-20T11:14:49.075Z,72.61
2023-10-20T11:17:17.540Z,72.85
2023-10-20T11:19:49.038Z,73.15
2023-10-20T11:22:28.317Z,72.90
2023-10-20T11:24:56.833Z,73.43
2023-10-20T11:27:56.942Z,72.60
2023-10-20T11:30:48.720Z,73.05
2023-10-20T11:33:49.402Z,73.04
2023-10-20T11:44:55.588Z,72.49
2023-10-20T11:47:47.214Z,72.01
2023-10-20T11:50:18.551Z,72.40
2023-10-20T11:52:47.493Z,72.62
2023-10-20T11:55:15.976Z,72.91
2023-10-20T11:57:47.259Z,72.19
2023-10-20T12:00:19.150Z,72.04
2023-10-20T12:02:48.694Z,72.17
2023-10-20T12:05:17.146Z,72.48
2023-10-20T12:07:48.755Z,72.46
2023-10-20T12:10:17.423Z,72.74
2023-10-20T12:12:49.018Z,72.49
2023-10-20T12:15:17.657Z,73.06
2023-10-20T12:17:48.978Z,73.12
2023-10-20T12:20:17.522Z,72.68
2023-10-20T12:22:49.174Z,72.72
2023-10-20T12:25:17.553Z,72.86
2023-10-20T12:27:48.599Z,73.04
2023-10-20T12:30:17.876Z,73.01
2023-10-20T12:32:50.365Z,72.87
2023-10-20T12:35:20.403Z,72.71
2023-10-20T12:37:48.952Z,73.11
2023-10-20T12:40:18.043Z,72.95
2023-10-20T12:42:46.760Z,72.88
2023-10-20T12:45:18.816Z,72.58
2023-10-20T12:59:20.122Z,72.14
2023-10-20T13:01:52.139Z,71.80
2023-10-20T13:04:20.788Z,72.07
2023-10-20T13:10:01.321Z,73.55
2023-10-20T13:12:32.715Z,73.87
2023-10-20T13:15:14.277Z,73.48
2023-10-20T13:17:50.231Z,73.16
2023-10-20T13:20:18.935Z,72.69
2023-10-20T13:22:47.669Z,72.43
2023-10-20T13:25:16.171Z,72.00
2023-10-20T13:27:44.741Z,72.34
2023-10-20T13:30:14.645Z,72.35
2023-10-20T13:32:43.895Z,72.44
2023-10-20T13:35:12.615Z,73.35
2023-10-20T13:37:47.300Z,74.08
2023-10-20T13:40:15.814Z,76.96
2023-10-20T13:42:46.967Z,77.06
2023-10-20T13:45:14.994Z,78.13
2023-10-20T13:47:43.416Z,76.76
2023-10-20T13:50:12.354Z,75.93
2023-10-20T13:52:40.800Z,75.43
2023-10-20T13:55:14.707Z,74.82
2023-10-20T13:57:43.344Z,75.05
2023-10-20T14:00:14.305Z,74.85
2023-10-20T14:02:53.224Z,73.26
2023-10-20T14:05:22.066Z,73.35
2023-10-20T14:10:42.663Z,74.25
2023-10-20T14:13:18.642Z,73.42
2023-10-20T14:15:48.099Z,73.42
2023-10-20T14:18:17.044Z,73.30
2023-10-20T14:20:45.708Z,74.00
2023-10-20T14:23:19.886Z,74.46
2023-10-20T14:25:48.726Z,75.09
2023-10-20T14:28:17.799Z,75.59
2023-10-20T14:30:53.799Z,75.73
2023-10-20T14:33:22.736Z,76.77
2023-10-20T14:35:52.684Z,77.60
2023-10-20T14:38:24.262Z,76.68
2023-10-20T14:41:04.216Z,77.59
2023-10-20T14:43:37.097Z,77.35
2023-10-20T14:46:10.335Z,75.95
2023-10-20T14:48:39.864Z,75.41
2023-10-20T14:51:12.611Z,75.48
2023-10-20T14:53:41.639Z,76.49
2023-10-20T14:56:44.051Z,77.15
2023-10-20T14:59:15.692Z,77.61
2023-10-20T15:01:49.232Z,77.56
2023-10-20T15:04:30.399Z,78.56
2023-10-20T15:07:11.881Z,79.73
2023-10-20T15:09:40.394Z,79.63
2023-10-20T15:12:17.428Z,79.76
2023-10-20T15:14:45.963Z,79.68
2023-10-20T15:17:14.523Z,79.70
2023-10-20T15:19:43.164Z,79.79
2023-10-20T15:22:15.642Z,80.50
2023-10-20T15:24:47.140Z,80.99
2023-10-20T15:27:16.881Z,80.73
2023-10-20T15:29:47.788Z,80.97
2023-10-20T15:35:21.169Z,80.98
2023-10-20T15:37:50.345Z,80.60
2023-10-20T15:40:45.745Z,79.59
2023-10-20T15:43:14.622Z,79.22
2023-10-20T15:45:44.721Z,78.23
2023-10-20T15:48:15.247Z,77.39
2023-10-20T15:50:47.222Z,76.02
2023-10-20T15:53:16.163Z,76.21
2023-10-20T15:55:47.265Z,75.83
2023-10-20T15:58:17.610Z,75.65
2023-10-20T16:00:49.825Z,75.58
2023-10-20T16:03:20.469Z,76.65
2023-10-20T16:05:49.177Z,77.61
2023-10-20T16:08:17.645Z,78.04
2023-10-20T16:10:46.216Z,78.65
2023-10-20T16:13:14.668Z,78.38
2023-10-20T16:15:44.686Z,78.58
2023-10-20T16:18:16.770Z,78.13
2023-10-20T16:21:19.145Z,78.50
2023-10-20T16:23:48.359Z,78.75
2023-10-20T16:26:17.440Z,78.07
2023-10-20T16:29:18.611Z,78.83
2023-10-20T16:33:11.582Z,78.48
2023-10-20T16:35:22.504Z,77.95
2023-10-20T16:37:54.136Z,77.92
2023-10-20T16:40:22.863Z,77.39
2023-10-20T16:43:15.403Z,75.72
2023-10-20T16:45:51.885Z,74.99
2023-10-20T16:48:20.919Z,74.37
2023-10-20T16:51:13.566Z,72.95
2023-10-20T16:57:12.524Z,72.98
2023-10-20T16:59:43.760Z,73.87
2023-10-20T17:02:17.111Z,73.24
2023-10-20T17:05:15.830Z,73.02
2023-10-20T17:07:44.204Z,73.13
2023-10-20T17:10:15.985Z,73.67
2023-10-20T17:12:48.592Z,73.11
2023-10-20T17:15:17.820Z,72.80
2023-10-20T17:18:12.615Z,72.16
2023-10-20T17:26:17.113Z,71.07
2023-10-20T17:29:15.089Z,71.02
2023-10-20T17:31:43.485Z,70.42
2023-10-20T17:34:18.234Z,70.41
2023-10-20T17:37:02.030Z,70.28
2023-10-20T17:42:14.250Z,69.68
2023-10-20T17:44:51.576Z,69.09
2023-10-20T17:47:20.774Z,68.64
2023-10-20T17:50:13.661Z,69.57
2023-10-20T17:58:14.962Z,68.97
2023-10-20T18:00:43.383Z,69.44
2023-10-20T18:03:14.846Z,69.14
2023-10-20T18:05:43.499Z,69.62
2023-10-20T18:08:15.343Z,69.33
2023-10-20T18:10:44.461Z,68.98
2023-10-20T18:13:13.012Z,68.97
2023-10-20T18:16:13.358Z,69.79
2023-10-20T18:18:52.780Z,68.69
2023-10-20T18:21:43.878Z,68.47
2023-10-20T18:24:14.613Z,67.85
2023-10-20T18:26:43.893Z,67.64
2023-10-20T18:29:19.489Z,67.49
2023-10-20T18:34:41.023Z,66.89
2023-10-20T18:37:14.220Z,65.04
2023-10-20T18:39:45.417Z,63.54
2023-10-20T18:42:13.916Z,63.08
2023-10-20T18:44:42.525Z,63.02
2023-10-20T18:47:43.138Z,62.96
2023-10-20T18:50:37.015Z,61.60
2023-10-20T18:58:58.972Z,60.78
2023-10-20T19:01:43.736Z,61.27
2023-10-20T19:07:21.614Z,61.32
2023-10-20T19:12:43.353Z,61.67
2023-10-20T19:15:22.361Z,61.70
2023-10-20T19:17:50.818Z,62.02
2023-10-20T19:20:34.356Z,62.36
2023-10-20T19:23:04.636Z,63.27
2023-10-20T19:26:42.237Z,62.63
2023-10-20T19:29:13.941Z,62.40
2023-10-20T19:31:45.404Z,62.63
2023-10-20T19:34:14.056Z,61.52
2023-10-20T19:36:42.530Z,60.92
2023-10-20T19:39:13.958Z,61.56
2023-10-20T19:41:43.113Z,61.63
2023-10-20T19:44:14.563Z,61.07
2023-10-20T19:46:44.041Z,60.47
2023-10-20T19:49:13.082Z,60.02
2023-10-20T19:51:42.607Z,59.80
2023-10-20T19:54:14.017Z,60.44
2023-10-20T19:59:42.697Z,60.85
2023-10-20T20:02:14.782Z,60.70
2023-10-20T20:08:15.877Z,60.21
2023-10-20T20:10:44.585Z,61.14
2023-10-20T20:13:16.568Z,60.89
2023-10-20T20:15:59.586Z,60.78
2023-10-20T20:18:54.719Z,60.95
2023-10-20T20:21:42.081Z,61.19
2023-10-20T20:32:17.812Z,61.11
2023-10-20T20:35:13.934Z,61.52
2023-10-20T20:41:13.265Z,61.13
2023-10-20T20:43:43.355Z,60.12
2023-10-20T20:46:15.836Z,59.54
2023-10-20T20:52:16.551Z,60.09
2023-10-20T20:54:44.928Z,60.70
2023-10-20T20:57:17.616Z,60.39
2023-10-20T21:00:14.682Z,60.02
2023-10-20T21:02:51.014Z,60.62
2023-10-20T21:05:19.589Z,60.29
2023-10-20T21:11:12.866Z,61.12
2023-10-20T21:14:13.508Z,62.17
2023-10-20T21:16:45.396Z,63.01
2023-10-20T21:19:13.781Z,62.96
2023-10-20T21:21:43.173Z,62.57
2023-10-20T21:24:14.615Z,62.38
2023-10-20T21:26:43.268Z,62.42
2023-10-20T21:29:13.658Z,62.70
2023-10-20T21:31:42.556Z,63.25
2023-10-20T21:34:15.153Z,63.06
2023-10-20T21:36:43.642Z,64.15
2023-10-20T21:39:15.541Z,64.50
2023-10-20T21:41:44.594Z,65.01
2023-10-20T21:44:12.964Z,65.29
2023-10-20T21:46:44.494Z,65.37
2023-10-20T21:51:43.149Z,65.24
2023-10-20T21:54:14.696Z,66.02
2023-10-20T21:56:43.308Z,65.91
2023-10-20T21:59:14.749Z,65.70
2023-10-20T22:01:49.453Z,66.23
2023-10-20T22:04:28.772Z,66.08
2023-10-20T22:07:15.266Z,65.86
2023-10-20T22:09:53.673Z,65.72
2023-10-20T22:12:23.499Z,65.86
2023-10-20T22:15:16.685Z,66.04
2023-10-20T22:17:45.160Z,66.82
2023-10-20T22:20:13.777Z,67.44
2023-10-20T22:22:45.064Z,67.72
2023-10-20T22:25:13.778Z,67.31
2023-10-20T22:27:45.743Z,67.60
2023-10-20T22:30:14.876Z,67.68
2023-10-20T22:32:46.144Z,67.30
2023-10-20T22:35:14.664Z,66.99
2023-10-20T22:37:44.555Z,67.52
2023-10-20T22:40:13.395Z,66.68
2023-10-20T22:48:30.780Z,65.08
2023-10-20T22:51:18.009Z,65.36
2023-10-20T22:54:22.729Z,64.76
2023-10-20T23:04:22.501Z,67.53
2023-10-20T23:17:44.614Z,67.47
2023-10-20T23:22:48.843Z,67.15
2023-10-20T23:56:46.571Z,69.94
